Back to Top

Language: 

My Weather Underground Personal Weather Station Historical Data with Graphs...

Delerius Weather Station Historical Data
 
Daily Summary for May 24, 2018 Units:  Metric    English   Both
« Previous Day
Next Day »
Daily Weekly Monthly Yearly Custom
  Current: High: Low: Average:
Temperature: 11.2 °C 11.2 °C 8.1 °C 8.8 °C
Dew Point: 8.8 °C 8.8 °C 6.7 °C 7.2 °C
Humidity: 85 % 91 % 85 % 90 %
Wind Speed: 6.4 km/h 12.9 km/h 0 km/h 6.1 km/h
Wind Gust: 11.3 km/h 20.9 km/h - -
Wind:NE - - East
Pressure: 1024.6 hPa 1027 hPa 1024.6 hPa -
Precipitation: 0 mm      
Historical Graphs
 
 
Tabular Data for May 24, 2018
Time Temperature Dew Point Pressure Wind Wind Speed Wind Gust Humidity Rainfall Rate (Hourly) solar Conditions
00:03 9.3 °C 7.4 °C 1026.6 hPa Calm     88 % 0 mm 0 W/m2
00:08 9.3 °C 7.6 °C 1026.6 hPa NNE 1.6 km/h 9.7 km/h 89 % 0 mm 0 W/m2
00:13 9.3 °C 7.6 °C 1026.6 hPa Calm     89 % 0 mm 0 W/m2
00:18 9.3 °C 7.6 °C 1027 hPa North 1.6 km/h 11.3 km/h 89 % 0 mm 0 W/m2
00:23 9.3 °C 7.6 °C 1027 hPa North 3.2 km/h 8 km/h 89 % 0 mm 0 W/m2
00:28 9.3 °C 7.6 °C 1027 hPa NNW 6.4 km/h 12.9 km/h 89 % 0 mm 0 W/m2
00:33 9.3 °C 7.6 °C 1027 hPa NNE 8 km/h 12.9 km/h 89 % 0 mm 0 W/m2
00:38 9.2 °C 7.5 °C 1027 hPa NNE 11.3 km/h 19.3 km/h 89 % 0 mm 0 W/m2
00:43 9.2 °C 7.5 °C 1026.6 hPa NNE 6.4 km/h 14.5 km/h 89 % 0 mm 0 W/m2
00:48 9.1 °C 7.4 °C 1026.6 hPa NNE 9.7 km/h 16.1 km/h 89 % 0 mm 0 W/m2
00:53 9 °C 7.3 °C 1027 hPa Calm   1.6 km/h 89 % 0 mm 0 W/m2
00:58 8.9 °C 7.2 °C 1026.6 hPa North 8 km/h 16.1 km/h 89 % 0 mm 0 W/m2
01:03 8.8 °C 7.1 °C 1026.6 hPa NNE 8 km/h 16.1 km/h 89 % 0 mm 0 W/m2
01:08 8.8 °C 7.1 °C 1026.6 hPa NNE 9.7 km/h 16.1 km/h 89 % 0 mm 0 W/m2
01:13 8.7 °C 7 °C 1026.6 hPa NNE 8 km/h 16.1 km/h 89 % 0 mm 0 W/m2
01:18 8.6 °C 7.1 °C 1026.6 hPa NE 9.7 km/h 16.1 km/h 90 % 0 mm 0 W/m2
01:23 8.5 °C 6.9 °C 1026.6 hPa NE 8 km/h 16.1 km/h 90 % 0 mm 0 W/m2
01:28 8.5 °C 6.9 °C 1026.6 hPa NE 8 km/h 12.9 km/h 90 % 0 mm 0 W/m2
01:33 8.5 °C 6.9 °C 1026.6 hPa NE 4.8 km/h 16.1 km/h 90 % 0 mm 0 W/m2
01:38 8.4 °C 6.8 °C 1026.6 hPa North 4.8 km/h 12.9 km/h 90 % 0 mm 0 W/m2
01:43 8.4 °C 6.8 °C 1026.6 hPa NE 4.8 km/h 12.9 km/h 90 % 0 mm 0 W/m2
01:48 8.4 °C 6.8 °C 1026.6 hPa NE 6.4 km/h 14.5 km/h 90 % 0 mm 0 W/m2
01:53 8.4 °C 6.8 °C 1026.6 hPa NNE 6.4 km/h 16.1 km/h 90 % 0 mm 0 W/m2
01:58 8.4 °C 6.8 °C 1026.6 hPa NNE 6.4 km/h 16.1 km/h 90 % 0 mm 0 W/m2
02:03 8.4 °C 6.8 °C 1026.6 hPa NNW 3.2 km/h 12.9 km/h 90 % 0 mm 0 W/m2
02:08 8.4 °C 6.8 °C 1026.6 hPa NE 1.6 km/h 9.7 km/h 90 % 0 mm 0 W/m2
02:13 8.4 °C 7 °C 1026.6 hPa NE 6.4 km/h 14.5 km/h 91 % 0 mm 0 W/m2
02:18 8.4 °C 7 °C 1026.6 hPa NNE 8 km/h 14.5 km/h 91 % 0 mm 0 W/m2
02:23 8.3 °C 6.8 °C 1026.6 hPa NNE 8 km/h 14.5 km/h 90 % 0 mm 0 W/m2
02:28 8.3 °C 6.8 °C 1026.6 hPa NE 1.6 km/h 8 km/h 90 % 0 mm 0 W/m2
02:33 8.3 °C 6.9 °C 1026.6 hPa North 8 km/h 16.1 km/h 91 % 0 mm 0 W/m2
02:38 8.2 °C 6.8 °C 1026.6 hPa NNE 11.3 km/h 20.9 km/h 91 % 0 mm 0 W/m2
02:43 8.2 °C 6.8 °C 1026.6 hPa NNE 3.2 km/h 9.7 km/h 91 % 0 mm 0 W/m2
02:48 8.2 °C 6.8 °C 1026.6 hPa NNE 9.7 km/h 17.7 km/h 91 % 0 mm 0 W/m2
02:53 8.1 °C 6.7 °C 1026.3 hPa NNE 6.4 km/h 11.3 km/h 91 % 0 mm 0 W/m2
02:58 8.2 °C 6.8 °C 1026.3 hPa NNE 4.8 km/h 12.9 km/h 91 % 0 mm 0 W/m2
03:03 8.2 °C 6.8 °C 1026.6 hPa NE 4.8 km/h 14.5 km/h 91 % 0 mm 0 W/m2
03:08 8.2 °C 6.8 °C 1026.3 hPa Calm   4.8 km/h 91 % 0 mm 0 W/m2
03:13 8.2 °C 6.8 °C 1026.3 hPa ENE 3.2 km/h 9.7 km/h 91 % 0 mm 0 W/m2
03:18 8.2 °C 6.8 °C 1026.3 hPa North 8 km/h 14.5 km/h 91 % 0 mm 0 W/m2
03:23 8.1 °C 6.7 °C 1026.3 hPa North 9.7 km/h 17.7 km/h 91 % 0 mm 0 W/m2
03:28 8.2 °C 6.8 °C 1026.3 hPa NE 3.2 km/h 20.9 km/h 91 % 0 mm 0 W/m2
03:33 8.1 °C 6.7 °C 1026.3 hPa North 6.4 km/h 14.5 km/h 91 % 0 mm 0 W/m2
03:38 8.1 °C 6.7 °C 1026.3 hPa North 6.4 km/h 9.7 km/h 91 % 0 mm 0 W/m2
03:43 8.1 °C 6.7 °C 1026.3 hPa NNE 3.2 km/h 9.7 km/h 91 % 0 mm 0 W/m2
03:48 8.1 °C 6.7 °C 1026 hPa North 4.8 km/h 11.3 km/h 91 % 0 mm 0 W/m2
03:53 8.2 °C 6.8 °C 1026.3 hPa NE 3.2 km/h 8 km/h 91 % 0 mm 0 W/m2
03:58 8.2 °C 6.8 °C 1026 hPa Calm   3.2 km/h 91 % 0 mm 0 W/m2
04:03 8.2 °C 6.8 °C 1026 hPa NNE 6.4 km/h 12.9 km/h 91 % 0 mm 0 W/m2
04:08 8.2 °C 6.8 °C 1026 hPa NNE 4.8 km/h 12.9 km/h 91 % 0 mm 0 W/m2
04:13 8.2 °C 6.8 °C 1026 hPa North 4.8 km/h 11.3 km/h 91 % 0 mm 0 W/m2
04:18 8.2 °C 6.8 °C 1026 hPa North 4.8 km/h 12.9 km/h 91 % 0 mm 0 W/m2
04:23 8.1 °C 6.7 °C 1026 hPa NNE 4.8 km/h 14.5 km/h 91 % 0 mm 0 W/m2
04:28 8.1 °C 6.7 °C 1026 hPa North 4.8 km/h 11.3 km/h 91 % 0 mm 0 W/m2
04:33 8.1 °C 6.7 °C 1026 hPa NE 9.7 km/h 16.1 km/h 91 % 0 mm 0 W/m2
04:38 8.1 °C 6.7 °C 1026 hPa North 6.4 km/h 12.9 km/h 91 % 0 mm 0 W/m2
04:43 8.1 °C 6.7 °C 1026 hPa NNW 6.4 km/h 12.9 km/h 91 % 0 mm 0 W/m2
04:48 8.2 °C 6.8 °C 1026 hPa NNE 1.6 km/h 9.7 km/h 91 % 0 mm 0 W/m2
04:53 8.2 °C 6.8 °C 1026 hPa NE 4.8 km/h 9.7 km/h 91 % 0 mm 0 W/m2
04:58 8.2 °C 6.8 °C 1025.6 hPa NNE 4.8 km/h 11.3 km/h 91 % 0 mm 0 W/m2
05:03 8.2 °C 6.8 °C 1025.6 hPa North 3.2 km/h 9.7 km/h 91 % 0 mm 0 W/m2
05:08 8.2 °C 6.8 °C 1025.6 hPa NNE 3.2 km/h 8 km/h 91 % 0 mm 5 W/m2
05:13 8.3 °C 6.9 °C 1025.6 hPa North 3.2 km/h 9.7 km/h 91 % 0 mm 5 W/m2
05:18 8.2 °C 6.8 °C 1025.6 hPa NE 1.6 km/h 11.3 km/h 91 % 0 mm 9 W/m2
05:23 8.2 °C 6.8 °C 1025.6 hPa North 8 km/h 14.5 km/h 91 % 0 mm 9 W/m2
05:28 8.2 °C 6.8 °C 1025.6 hPa NNE 8 km/h 16.1 km/h 91 % 0 mm 11 W/m2
05:33 8.2 °C 6.8 °C 1025.6 hPa North 8 km/h 14.5 km/h 91 % 0 mm 12 W/m2
05:38 8.2 °C 6.8 °C 1025.6 hPa North 8 km/h 12.9 km/h 91 % 0 mm 14 W/m2
05:43 8.2 °C 6.8 °C 1025.6 hPa North 4.8 km/h 14.5 km/h 91 % 0 mm 16 W/m2
05:48 8.2 °C 6.8 °C 1025.6 hPa NNE 8 km/h 14.5 km/h 91 % 0 mm 19 W/m2
05:53 8.2 °C 6.8 °C 1025.6 hPa NNE 6.4 km/h 12.9 km/h 91 % 0 mm 25 W/m2
05:58 8.2 °C 6.8 °C 1025.6 hPa North 9.7 km/h 17.7 km/h 91 % 0 mm 40 W/m2
06:03 8.2 °C 6.8 °C 1025.6 hPa NNE 8 km/h 14.5 km/h 91 % 0 mm 39 W/m2
06:08 8.2 °C 6.8 °C 1025.6 hPa NNE 3.2 km/h 9.7 km/h 91 % 0 mm 39 W/m2
06:13 8.3 °C 6.9 °C 1025.6 hPa NE 3.2 km/h 9.7 km/h 91 % 0 mm 40 W/m2
06:18 8.3 °C 6.9 °C 1025.6 hPa Calm   1.6 km/h 91 % 0 mm 39 W/m2
06:23 8.3 °C 6.9 °C 1025.6 hPa North 4.8 km/h 8 km/h 91 % 0 mm 40 W/m2
06:28 8.3 °C 6.9 °C 1025.6 hPa NNE 4.8 km/h 11.3 km/h 91 % 0 mm 39 W/m2
06:33 8.3 °C 6.9 °C 1025.6 hPa North 3.2 km/h 8 km/h 91 % 0 mm 49 W/m2
06:38 8.4 °C 7 °C 1025.3 hPa North 8 km/h 12.9 km/h 91 % 0 mm 44 W/m2
06:43 8.4 °C 7 °C 1025.3 hPa North 11.3 km/h 16.1 km/h 91 % 0 mm 51 W/m2
06:48 8.4 °C 7 °C 1025.3 hPa NNW 8 km/h 16.1 km/h 91 % 0 mm 51 W/m2
06:53 8.4 °C 7 °C 1025.3 hPa North 6.4 km/h 14.5 km/h 91 % 0 mm 56 W/m2
06:58 8.5 °C 7.1 °C 1025.3 hPa North 12.9 km/h 19.3 km/h 91 % 0 mm 67 W/m2
07:03 8.4 °C 7 °C 1025.3 hPa NNE 6.4 km/h 14.5 km/h 91 % 0 mm 72 W/m2
07:08 8.5 °C 7.1 °C 1025.3 hPa NNE 8 km/h 12.9 km/h 91 % 0 mm 83 W/m2
07:13 8.5 °C 7.1 °C 1025.3 hPa NNE 9.7 km/h 14.5 km/h 91 % 0 mm 83 W/m2
07:19 8.6 °C 7.2 °C 1025.3 hPa NNE 8 km/h 16.1 km/h 91 % 0 mm 100 W/m2
07:24 8.6 °C 7.2 °C 1025.3 hPa NNW 9.7 km/h 17.7 km/h 91 % 0 mm 104 W/m2
07:29 8.7 °C 7.3 °C 1025.3 hPa NNE 6.4 km/h 14.5 km/h 91 % 0 mm 79 W/m2
07:34 8.7 °C 7.2 °C 1025.3 hPa NE 6.4 km/h 11.3 km/h 90 % 0 mm 76 W/m2
07:39 8.7 °C 7.2 °C 1025.3 hPa North 4.8 km/h 17.7 km/h 90 % 0 mm 83 W/m2
07:44 8.7 °C 7.2 °C 1025.3 hPa NNW 8 km/h 12.9 km/h 90 % 0 mm 104 W/m2
07:49 8.8 °C 7.2 °C 1025.3 hPa North 9.7 km/h 14.5 km/h 90 % 0 mm 139 W/m2
07:54 8.9 °C 7.3 °C 1025.3 hPa NNW 8 km/h 12.9 km/h 90 % 0 mm 172 W/m2
07:59 9 °C 7.4 °C 1025.3 hPa NNW 3.2 km/h 11.3 km/h 90 % 0 mm 163 W/m2
08:04 9.2 °C 7.7 °C 1025.3 hPa NNW 4.8 km/h 11.3 km/h 90 % 0 mm 149 W/m2
08:09 9.2 °C 7.5 °C 1025.3 hPa NE 4.8 km/h 12.9 km/h 89 % 0 mm 148 W/m2
08:14 9.2 °C 7.5 °C 1025.3 hPa NE 3.2 km/h 9.7 km/h 89 % 0 mm 118 W/m2
08:19 9.2 °C 7.5 °C 1025.3 hPa NNE 9.7 km/h 12.9 km/h 89 % 0 mm 144 W/m2
08:24 9.2 °C 7.5 °C 1025.6 hPa NE 4.8 km/h 11.3 km/h 89 % 0 mm 153 W/m2
08:29 9.1 °C 7.4 °C 1025.3 hPa North 11.3 km/h 17.7 km/h 89 % 0 mm 137 W/m2
08:34 9.1 °C 7.4 °C 1025.3 hPa North 9.7 km/h 16.1 km/h 89 % 0 mm 107 W/m2
08:39 9.1 °C 7.4 °C 1025.3 hPa NNE 6.4 km/h 12.9 km/h 89 % 0 mm 105 W/m2
08:44 9.1 °C 7.4 °C 1025.3 hPa NE 4.8 km/h 9.7 km/h 89 % 0 mm 120 W/m2
08:49 9.1 °C 7.4 °C 1025.3 hPa NNE 9.7 km/h 14.5 km/h 89 % 0 mm 155 W/m2
08:54 9.2 °C 7.5 °C 1025.3 hPa NNE 8 km/h 12.9 km/h 89 % 0 mm 218 W/m2
08:59 9.2 °C 7.5 °C 1025.3 hPa North 4.8 km/h 12.9 km/h 89 % 0 mm 199 W/m2
09:04 9.4 °C 7.8 °C 1025.3 hPa NNE 4.8 km/h 11.3 km/h 90 % 0 mm 178 W/m2
09:09 9.6 °C 7.9 °C 1025.3 hPa NE 4.8 km/h 11.3 km/h 89 % 0 mm 190 W/m2
09:14 9.7 °C 8 °C 1025.3 hPa NNE 4.8 km/h 11.3 km/h 89 % 0 mm 167 W/m2
09:19 9.7 °C 7.8 °C 1025.3 hPa North 8 km/h 17.7 km/h 88 % 0 mm 134 W/m2
09:24 9.7 °C 7.8 °C 1025.3 hPa NNE 8 km/h 12.9 km/h 88 % 0 mm 158 W/m2
09:29 9.7 °C 7.8 °C 1025.3 hPa NNE 6.4 km/h 12.9 km/h 88 % 0 mm 178 W/m2
09:34 9.8 °C 7.9 °C 1025.3 hPa North 4.8 km/h 11.3 km/h 88 % 0 mm 172 W/m2
09:39 9.9 °C 8 °C 1025.3 hPa NNE 8 km/h 14.5 km/h 88 % 0 mm 192 W/m2
09:44 10.1 °C 8.2 °C 1024.9 hPa NNE 4.8 km/h 12.9 km/h 88 % 0 mm 229 W/m2
09:49 10.2 °C 8.1 °C 1024.9 hPa NNE 8 km/h 12.9 km/h 87 % 0 mm 234 W/m2
09:54 10.3 °C 8.2 °C 1024.9 hPa North 9.7 km/h 16.1 km/h 87 % 0 mm 214 W/m2
09:59 10.4 °C 8.3 °C 1024.9 hPa NNW 6.4 km/h 16.1 km/h 87 % 0 mm 185 W/m2
10:04 10.4 °C 8.2 °C 1024.9 hPa NNE 8 km/h 12.9 km/h 86 % 0 mm 213 W/m2
10:09 10.6 °C 8.3 °C 1024.9 hPa North 3.2 km/h 8 km/h 86 % 0 mm 214 W/m2
10:14 10.6 °C 8.3 °C 1024.9 hPa North 4.8 km/h 11.3 km/h 86 % 0 mm 211 W/m2
10:19 10.7 °C 8.4 °C 1024.9 hPa North 6.4 km/h 14.5 km/h 86 % 0 mm 243 W/m2
10:24 10.9 °C 8.7 °C 1024.9 hPa North 6.4 km/h 12.9 km/h 86 % 0 mm 239 W/m2
10:29 11.1 °C 8.7 °C 1024.9 hPa North 6.4 km/h 9.7 km/h 85 % 0 mm 241 W/m2
10:34 11.2 °C 8.8 °C 1024.9 hPa NNE 4.8 km/h 14.5 km/h 85 % 0 mm 239 W/m2
10:39 11.2 °C 8.8 °C 1024.6 hPa NE 6.4 km/h 11.3 km/h 85 % 0 mm 221 W/m2
Delerius-Weather
Compliments of Weather Underground - 1.5 mb

Data updates at regular intervals.